Time;durP1;ratioP1;P1;durP2;ratioP2;P2;SDS_P1;SDS_P2;PMS_P1;PMS_P2;Temp;Humidity;BMP_temperature;BMP_pressure;BME280_temperature;BME280_humidity;BME280_pressure;Samples;Min_cycle;Max_cycle;Signal;HPM_P1;HPM_P2
2022/06/03 00:01:07;;;;;;;10.82;5.90;;;;;;;15.67;69.07;101593.19;5067778;28;20049;-72
2022/06/03 00:04:11;;;;;;;12.95;5.68;;;;;;;15.61;69.12;101578.09;5073537;28;20048;-73
2022/06/03 00:07:12;;;;;;;11.20;5.72;;;;;;;15.54;70.10;101578.97;5078041;28;20127;-72
2022/06/03 00:10:00;;;;;;;12.77;5.88;;;;;;;15.52;70.03;101575.78;5071480;28;20048;-72
2022/06/03 00:12:48;;;;;;;12.88;6.32;;;;;;;15.48;69.10;101570.25;5078225;28;20652;-73
2022/06/03 00:15:50;;;;;;;16.15;6.57;;;;;;;15.43;71.27;101579.03;5072690;28;20056;-71
2022/06/03 00:18:29;;;;;;;15.30;5.97;;;;;;;15.41;69.97;101580.63;5030538;28;20057;-72
2022/06/03 00:21:07;;;;;;;13.82;6.18;;;;;;;15.36;70.42;101567.91;5066027;28;20053;-73
2022/06/03 00:23:39;;;;;;;13.35;6.03;;;;;;;15.35;70.26;101573.88;5078064;28;20044;-72
2022/06/03 00:26:21;;;;;;;10.25;5.38;;;;;;;15.34;71.33;101572.31;5067015;28;20044;-72
2022/06/03 00:29:20;;;;;;;11.40;6.45;;;;;;;15.32;70.94;101575.50;5075062;28;20137;-71
2022/06/03 00:32:08;;;;;;;12.15;6.00;;;;;;;15.27;70.42;101564.78;5042927;28;20062;-74
2022/06/03 00:34:50;;;;;;;14.23;6.32;;;;;;;15.21;72.20;101571.19;5081189;28;20135;-73
2022/06/03 00:37:30;;;;;;;11.95;6.03;;;;;;;15.19;72.18;101565.25;5079819;28;20054;-71
2022/06/03 00:40:27;;;;;;;10.50;5.70;;;;;;;15.17;71.95;101565.66;5075046;28;20062;-73
2022/06/03 00:43:03;;;;;;;13.30;5.90;;;;;;;15.11;73.73;101567.28;5076044;28;20711;-73
2022/06/03 00:45:55;;;;;;;13.93;7.07;;;;;;;15.11;73.53;101570.06;5081954;28;20138;-74
2022/06/03 00:48:40;;;;;;;14.82;7.18;;;;;;;15.09;73.67;101563.31;5072791;28;20056;-73
2022/06/03 00:51:18;;;;;;;12.60;5.55;;;;;;;15.05;72.55;101557.75;5077322;28;20111;-73
2022/06/03 00:54:17;;;;;;;15.43;6.53;;;;;;;15.05;75.02;101568.09;5076054;28;20054;-73
2022/06/03 00:57:03;;;;;;;13.13;6.32;;;;;;;15.03;73.19;101565.75;5077416;28;20049;-72
2022/06/03 00:59:29;;;;;;;12.43;6.20;;;;;;;14.97;73.83;101561.78;5080911;28;20087;-72
2022/06/03 01:02:20;;;;;;;15.05;6.32;;;;;;;14.95;74.62;101553.03;5066615;28;20471;-74
2022/06/03 01:04:53;;;;;;;12.02;5.47;;;;;;;14.91;73.49;101555.06;5073431;28;20406;-72
2022/06/03 01:07:57;;;;;;;13.20;6.20;;;;;;;14.89;74.68;101549.06;5085141;28;20052;-75
2022/06/03 01:10:44;;;;;;;12.77;6.32;;;;;;;14.83;76.17;101544.34;5072603;28;20048;-73
2022/06/03 01:13:22;;;;;;;12.35;6.78;;;;;;;14.79;75.42;101549.16;5069050;28;20076;-72
2022/06/03 01:15:59;;;;;;;14.38;6.38;;;;;;;14.73;74.50;101546.00;5072692;28;20119;-72
2022/06/03 01:18:37;;;;;;;13.75;5.97;;;;;;;14.70;75.30;101549.59;5085535;28;20072;-72
2022/06/03 01:21:28;;;;;;;10.73;6.13;;;;;;;14.66;75.88;101546.03;5077721;28;20055;-73
2022/06/03 01:24:33;;;;;;;12.82;6.32;;;;;;;14.61;76.18;101542.84;5071717;28;20066;-73
2022/06/03 01:27:03;;;;;;;12.02;6.07;;;;;;;14.60;77.65;101547.66;5061250;28;20056;-73
2022/06/03 01:29:47;;;;;;;12.63;6.63;;;;;;;14.55;77.39;101550.06;5085596;28;20058;-72
2022/06/03 01:33:02;;;;;;;12.98;6.28;;;;;;;14.52;77.09;101545.28;5073055;28;20583;-73
2022/06/03 01:35:38;;;;;;;11.35;5.93;;;;;;;14.50;77.17;101544.91;4999072;28;20077;-72
2022/06/03 01:38:42;;;;;;;13.85;6.75;;;;;;;14.45;78.29;101540.53;5002697;28;20052;-73
2022/06/03 01:41:32;;;;;;;13.75;7.10;;;;;;;14.42;77.59;101541.38;5054826;28;20102;-72
2022/06/03 01:44:30;;;;;;;14.20;6.60;;;;;;;14.42;79.01;101541.38;5080986;28;20059;-72
2022/06/03 01:47:36;;;;;;;13.68;6.65;;;;;;;14.34;79.28;101534.22;5077861;28;20561;-73
2022/06/03 01:50:23;;;;;;;12.95;6.40;;;;;;;14.29;78.42;101542.19;5075330;28;20064;-72
2022/06/03 01:53:06;;;;;;;14.00;7.10;;;;;;;14.27;79.44;101544.56;5083191;28;20054;-73
2022/06/03 01:55:57;;;;;;;15.38;7.15;;;;;;;14.24;80.01;101539.84;5081981;28;20075;-71
2022/06/03 01:58:46;;;;;;;15.63;7.88;;;;;;;14.22;82.12;101534.66;5074170;28;20068;-72
2022/06/03 02:01:50;;;;;;;13.45;7.05;;;;;;;14.23;81.63;101541.81;5073519;28;20059;-71
2022/06/03 02:04:28;;;;;;;13.75;6.82;;;;;;;14.21;80.99;101541.38;5081159;28;20393;-72
2022/06/03 02:07:07;;;;;;;12.90;7.07;;;;;;;14.13;81.90;101545.38;5078545;28;20739;-73
2022/06/03 02:10:04;;;;;;;13.82;6.25;;;;;;;14.10;81.28;101535.06;5076473;28;20047;-74
2022/06/03 02:12:43;;;;;;;15.40;6.82;;;;;;;14.09;82.01;101530.69;5082746;28;20050;-71
2022/06/03 02:15:18;;;;;;;14.48;6.65;;;;;;;14.05;81.37;101529.91;5078341;28;20467;-75
2022/06/03 02:18:16;;;;;;;13.48;7.25;;;;;;;14.00;82.21;101530.31;5082046;28;20144;-73
2022/06/03 02:20:45;;;;;;;12.80;6.80;;;;;;;13.99;81.97;101530.72;5076983;28;20063;-73
2022/06/03 02:23:34;;;;;;;14.68;7.43;;;;;;;13.95;83.03;101532.72;5071248;28;20420;-71
2022/06/03 02:26:42;;;;;;;14.38;7.00;;;;;;;13.90;83.51;101522.78;5083765;28;20117;-73
2022/06/03 02:32:30;;;;;;;15.63;7.53;;;;;;;13.80;83.55;101523.59;5077471;28;20052;-72
2022/06/03 02:35:18;;;;;;;14.75;7.35;;;;;;;13.74;84.07;101511.28;5084887;28;20101;-73
2022/06/03 02:38:08;;;;;;;13.48;7.28;;;;;;;13.69;85.14;101517.25;5077046;28;20076;-71
2022/06/03 02:41:01;;;;;;;14.63;6.95;;;;;;;13.68;86.94;101509.31;5073903;28;20135;-73
2022/06/03 02:43:37;;;;;;;14.13;7.55;;;;;;;13.65;86.17;101515.66;5081429;28;20048;-72
2022/06/03 02:46:23;;;;;;;14.32;7.30;;;;;;;13.59;86.95;101512.50;5080032;28;20603;-71
2022/06/03 02:49:01;;;;;;;14.23;6.95;;;;;;;13.56;86.80;101515.28;5075429;28;20048;-73
2022/06/03 02:51:45;;;;;;;15.07;7.68;;;;;;;13.47;86.81;101512.91;5082249;28;20090;-72
2022/06/03 02:54:57;;;;;;;15.25;7.57;;;;;;;13.38;88.16;101497.81;5076114;28;20086;-73
2022/06/03 02:57:51;;;;;;;14.20;7.90;;;;;;;13.40;86.75;101496.22;5079776;28;20056;-72
2022/06/03 03:00:26;;;;;;;21.75;7.70;;;;;;;13.36;87.17;101489.09;5079589;28;20070;-72
2022/06/03 03:03:23;;;;;;;14.15;7.72;;;;;;;13.33;88.45;101495.44;5079424;28;20083;-72
2022/06/03 03:06:18;;;;;;;15.40;8.35;;;;;;;13.32;87.88;101499.38;5082436;28;20619;-72
2022/06/03 03:09:09;;;;;;;16.38;8.40;;;;;;;13.30;88.61;101499.00;5076464;28;20135;-71
2022/06/03 03:11:44;;;;;;;16.77;8.43;;;;;;;13.25;89.90;101494.63;5082504;28;20051;-72
2022/06/03 03:14:20;;;;;;;14.50;7.78;;;;;;;13.24;89.13;101495.84;5067830;28;20048;-72
2022/06/03 03:17:16;;;;;;;16.35;8.60;;;;;;;13.21;89.37;101499.41;5077404;28;20655;-72
2022/06/03 03:19:49;;;;;;;17.05;8.07;;;;;;;13.17;89.98;101490.28;5073626;28;20556;-75
2022/06/03 03:22:18;;;;;;;16.15;8.55;;;;;;;13.14;90.22;101490.25;5073459;28;20166;-71
2022/06/03 03:25:03;;;;;;;16.63;8.50;;;;;;;13.12;90.77;101489.88;5068446;28;20049;-71
2022/06/03 03:28:07;;;;;;;16.65;8.40;;;;;;;13.08;91.14;101489.84;5073352;28;20079;-73
2022/06/03 03:30:43;;;;;;;15.73;7.97;;;;;;;13.07;90.98;101493.84;5081824;28;20797;-76
2022/06/03 03:33:19;;;;;;;16.48;8.85;;;;;;;13.04;90.33;101489.06;5076987;28;20045;-72
2022/06/03 03:36:21;;;;;;;20.88;8.85;;;;;;;13.02;92.80;101502.53;5066193;28;20044;-71
2022/06/03 03:38:56;;;;;;;15.85;8.82;;;;;;;13.01;91.69;101500.97;5051333;28;20075;-73
2022/06/03 03:42:04;;;;;;;19.83;8.77;;;;;;;12.99;93.65;101498.59;5078139;28;20578;-73
2022/06/03 03:44:42;;;;;;;16.75;8.60;;;;;;;12.98;93.41;101493.38;5072178;28;20127;-72
2022/06/03 03:47:39;;;;;;;14.85;8.02;;;;;;;12.98;92.94;101501.72;5072579;28;20054;-72
2022/06/03 03:50:18;;;;;;;15.88;8.48;;;;;;;12.98;92.92;101498.94;5069778;28;20523;-72
2022/06/03 03:52:51;;;;;;;25.58;8.30;;;;;;;12.96;93.02;101492.97;5081437;28;20132;-72
2022/06/03 03:56:05;;;;;;;18.10;8.32;;;;;;;12.97;93.44;101491.81;5086202;28;20051;-73
2022/06/03 03:58:56;;;;;;;18.73;8.80;;;;;;;12.98;93.57;101479.50;5078687;28;20046;-71
2022/06/03 04:01:50;;;;;;;17.20;9.02;;;;;;;12.97;94.33;101494.59;5078194;28;20066;-74
2022/06/03 04:04:48;;;;;;;17.63;8.75;;;;;;;12.94;93.67;101490.63;5066744;28;20552;-73
2022/06/03 04:07:40;;;;;;;17.38;9.05;;;;;;;12.94;93.86;101500.94;5065639;28;20050;-74
2022/06/03 04:10:06;;;;;;;16.60;9.10;;;;;;;12.96;93.81;101506.88;5077148;28;20640;-71
2022/06/03 04:12:55;;;;;;;16.55;8.95;;;;;;;12.95;93.48;101503.31;5073927;28;20052;-71
2022/06/03 04:15:55;;;;;;;15.95;8.20;;;;;;;12.96;94.01;101496.56;5066255;28;20119;-71
2022/06/03 04:18:44;;;;;;;16.95;8.25;;;;;;;12.95;94.22;101481.09;5073622;28;20052;-73
2022/06/03 04:21:25;;;;;;;15.90;8.48;;;;;;;12.96;94.06;101498.53;5073614;28;20142;-77
2022/06/03 04:24:29;;;;;;;18.60;8.13;;;;;;;12.95;95.43;101483.06;5085409;28;20127;-71
2022/06/03 04:27:15;;;;;;;17.17;8.48;;;;;;;12.96;95.57;101477.13;5081026;28;20501;-74
2022/06/03 04:29:51;;;;;;;;;;;;;;;12.98;97.78;101473.94;5077279;28;20172;-73
2022/06/03 04:32:39;;;;;;;13.80;7.20;;;;;;;13.02;97.70;101479.53;5075446;28;20003;-72
2022/06/03 04:35:08;;;;;;;15.48;7.35;;;;;;;13.02;96.58;101469.22;5077847;28;20056;-71
2022/06/03 04:38:13;;;;;;;15.88;7.45;;;;;;;13.04;96.40;101469.63;5076937;28;20056;-72
2022/06/03 04:40:42;;;;;;;18.17;8.25;;;;;;;13.13;97.22;101477.56;5079377;28;20131;-73
2022/06/03 04:43:30;;;;;;;18.45;8.20;;;;;;;13.13;95.74;101475.56;5079429;28;20053;-74
2022/06/03 04:46:44;;;;;;;16.48;7.68;;;;;;;13.20;96.76;101477.56;5065559;28;20056;-71
2022/06/03 04:49:23;;;;;;;19.77;8.02;;;;;;;13.27;95.36;101483.13;5071589;28;20053;-72
2022/06/03 04:51:55;;;;;;;16.83;8.57;;;;;;;13.31;95.51;101475.56;5076410;28;20052;-73
2022/06/03 04:54:42;;;;;;;17.15;7.82;;;;;;;13.37;95.55;101468.44;5071913;28;20047;-73
2022/06/03 04:57:24;;;;;;;16.80;8.07;;;;;;;13.47;94.88;101460.09;5076096;28;20048;-72
2022/06/03 05:00:05;;;;;;;15.07;7.57;;;;;;;13.54;95.15;101465.63;5073334;28;20147;-73
2022/06/03 05:02:50;;;;;;;16.02;7.32;;;;;;;13.64;94.49;101470.41;5077783;28;20048;-72
2022/06/03 05:05:16;;;;;;;15.88;7.03;;;;;;;13.71;94.05;101469.56;5075134;28;20456;-74
2022/06/03 05:08:01;;;;;;;23.55;9.23;;;;;;;13.77;92.87;101463.19;5083724;28;20078;-72
2022/06/03 05:10:55;;;;;;;15.87;7.87;;;;;;;13.86;93.54;101458.00;5076791;28;20044;-72
2022/06/03 05:13:48;;;;;;;13.18;7.05;;;;;;;13.96;92.66;101456.38;5078365;28;20299;-72
2022/06/03 05:16:45;;;;;;;17.02;7.22;;;;;;;14.05;92.36;101460.34;5068410;28;20168;-73
2022/06/03 05:19:30;;;;;;;13.98;6.95;;;;;;;14.16;92.04;101452.75;5075510;28;20087;-72
2022/06/03 05:22:03;;;;;;;14.27;7.50;;;;;;;14.25;91.11;101450.38;5080442;28;20102;-74
2022/06/03 05:24:50;;;;;;;15.07;7.38;;;;;;;14.34;91.11;101458.28;5076186;28;20048;-71
2022/06/03 05:27:19;;;;;;;15.32;7.68;;;;;;;14.42;90.30;101457.84;5070826;28;20548;-72
2022/06/03 05:30:10;;;;;;;14.82;7.78;;;;;;;14.48;90.51;101458.97;5073436;28;20044;-74
2022/06/03 05:33:01;;;;;;;16.58;8.18;;;;;;;14.59;90.24;101451.38;5075617;28;20072;-78
2022/06/03 05:35:50;;;;;;;13.25;7.20;;;;;;;14.70;89.04;101449.31;5073002;28;20147;-76
2022/06/03 05:38:41;;;;;;;14.98;7.43;;;;;;;14.79;88.45;101452.41;5080580;28;20133;-73
2022/06/03 05:44:24;;;;;;;14.35;7.00;;;;;;;15.00;88.03;101448.69;5082917;28;20134;-74
2022/06/03 05:46:59;;;;;;;14.48;7.10;;;;;;;15.05;87.37;101448.25;5077391;28;20048;-75
2022/06/03 05:49:31;;;;;;;13.65;7.18;;;;;;;15.14;86.68;101454.97;5076236;28;20071;-74
2022/06/03 05:52:01;;;;;;;12.93;6.50;;;;;;;15.23;86.80;101452.47;5079137;28;20504;-74
2022/06/03 05:55:15;;;;;;;13.77;7.70;;;;;;;15.31;86.08;101451.22;5082297;28;20795;-77
2022/06/03 05:58:26;;;;;;;14.02;6.00;;;;;;;15.42;85.50;101443.59;5060370;28;20066;-75
2022/06/03 06:01:18;;;;;;;13.65;5.75;;;;;;;15.49;83.66;101443.50;5069558;28;20084;-74
2022/06/03 06:03:52;;;;;;;17.10;6.70;;;;;;;15.55;82.48;101445.88;5070295;28;20139;-75
2022/06/03 06:06:19;;;;;;;11.07;5.65;;;;;;;15.62;81.31;101452.16;5079300;28;20480;-75
2022/06/03 06:09:10;;;;;;;11.30;6.15;;;;;;;15.71;80.95;101443.28;5077702;28;20048;-78
2022/06/03 06:12:19;;;;;;;11.77;5.80;;;;;;;15.83;80.96;101437.19;5079560;28;20044;-75
2022/06/03 06:15:11;;;;;;;11.52;5.80;;;;;;;15.89;79.57;101441.13;5074454;28;20444;-75
2022/06/03 06:17:45;;;;;;;15.35;6.30;;;;;;;15.99;79.01;101434.63;5080839;28;20564;-74
2022/06/03 06:20:39;;;;;;;19.08;6.68;;;;;;;16.10;78.61;101435.28;5082254;28;20062;-74
2022/06/03 06:23:20;;;;;;;11.77;5.90;;;;;;;16.21;78.76;101427.56;5070806;28;20060;-71
2022/06/03 06:26:11;;;;;;;15.23;6.95;;;;;;;16.34;79.42;101425.78;5082279;28;20076;-74
2022/06/03 06:28:50;;;;;;;13.23;6.32;;;;;;;16.47;79.63;101421.25;5077750;28;20040;-72
2022/06/03 06:31:31;;;;;;;16.85;6.05;;;;;;;16.61;78.90;101427.41;5082258;28;20050;-73
2022/06/03 06:34:32;;;;;;;12.77;6.00;;;;;;;16.72;78.27;101425.28;5072225;28;20064;-71
2022/06/03 06:37:01;;;;;;;12.77;5.40;;;;;;;16.81;77.90;101425.50;5078182;28;20592;-72
2022/06/03 06:39:34;;;;;;;15.93;5.97;;;;;;;16.86;75.80;101427.03;5085558;28;20054;-74
2022/06/03 06:42:10;;;;;;;15.70;5.88;;;;;;;16.98;75.59;101426.47;5073674;28;20173;-71
2022/06/03 06:45:05;;;;;;;13.68;5.68;;;;;;;17.06;74.74;101423.13;5074701;28;20048;-73
2022/06/03 06:47:40;;;;;;;15.27;5.93;;;;;;;17.11;74.56;101413.47;5074766;28;20497;-71
2022/06/03 06:50:27;;;;;;;11.50;5.88;;;;;;;17.17;73.34;101422.94;5074271;28;20058;-72
2022/06/03 06:53:05;;;;;;;12.63;5.65;;;;;;;17.24;73.29;101426.41;5083909;28;20240;-74
2022/06/03 06:55:38;;;;;;;11.82;5.20;;;;;;;17.37;72.51;101426.59;5073916;28;20048;-72
2022/06/03 06:58:20;;;;;;;12.68;6.75;;;;;;;17.47;72.32;101434.03;5074259;28;20058;-71
2022/06/03 07:00:49;;;;;;;14.13;6.30;;;;;;;17.58;72.56;101441.03;5082778;28;20055;-71
2022/06/03 07:03:38;;;;;;;13.15;6.05;;;;;;;17.70;73.00;101434.81;5071945;28;20066;-72
2022/06/03 07:06:17;;;;;;;13.57;6.10;;;;;;;17.76;71.95;101427.47;5074632;28;20102;-71
2022/06/03 07:08:57;;;;;;;14.45;7.63;;;;;;;17.84;71.61;101426.13;5071791;28;20048;-72
2022/06/03 07:11:27;;;;;;;14.32;7.75;;;;;;;17.96;71.29;101421.91;5082160;28;20048;-73
2022/06/03 07:14:03;;;;;;;13.48;6.10;;;;;;;18.03;70.86;101418.97;5079427;28;20052;-72
2022/06/03 07:19:48;;;;;;;11.10;6.30;;;;;;;18.24;68.65;101423.31;5070071;28;20048;-70
2022/06/03 07:22:21;;;;;;;13.95;6.35;;;;;;;18.35;68.50;101430.28;5065677;28;20060;-71
2022/06/03 07:24:57;;;;;;;13.38;6.28;;;;;;;18.45;68.13;101431.28;5076388;28;20048;-72
2022/06/03 07:27:34;;;;;;;14.07;6.38;;;;;;;18.58;67.35;101435.00;5083666;28;20142;-72
2022/06/03 07:30:22;;;;;;;15.70;6.13;;;;;;;18.70;66.71;101426.69;5077276;28;20075;-72
2022/06/03 07:33:00;;;;;;;13.52;5.60;;;;;;;18.79;66.01;101410.06;5078744;28;20042;-72
2022/06/03 07:35:39;;;;;;;11.73;5.35;;;;;;;18.98;65.92;101416.84;5077870;28;20044;-74
2022/06/03 07:38:18;;;;;;;13.35;6.35;;;;;;;19.03;65.51;101414.28;5084196;28;20132;-71
2022/06/03 07:40:53;;;;;;;11.25;5.38;;;;;;;19.13;65.60;101407.63;5073793;28;20146;-76
2022/06/03 07:43:50;;;;;;;12.27;5.35;;;;;;;19.26;65.11;101416.13;5071741;28;20073;-72
2022/06/03 07:46:22;;;;;;;12.63;6.07;;;;;;;19.31;64.39;101422.00;5079442;28;20527;-73
2022/06/03 07:48:49;;;;;;;10.35;4.97;;;;;;;19.35;63.93;101413.50;5077477;28;20049;-73
2022/06/03 07:51:39;;;;;;;10.60;5.38;;;;;;;19.35;63.86;101408.69;5077780;28;20062;-72
2022/06/03 07:54:07;;;;;;;9.73;4.78;;;;;;;19.44;64.73;101405.25;5083907;28;20909;-72
2022/06/03 07:56:37;;;;;;;11.38;4.40;;;;;;;19.53;64.90;101409.00;5094480;28;20066;-72
2022/06/03 07:59:12;;;;;;;8.60;4.80;;;;;;;19.62;65.07;101397.16;5067426;28;20048;-72
2022/06/03 08:01:43;;;;;;;7.68;4.18;;;;;;;19.66;64.24;101389.41;5079932;28;20052;-71
2022/06/03 08:04:25;;;;;;;13.07;5.03;;;;;;;19.76;64.67;101400.34;5066912;28;20070;-73
2022/06/03 08:12:31;;;;;;;8.55;4.78;;;;;;;19.99;62.62;101404.91;5074550;28;20055;-71
2022/06/03 08:14:58;;;;;;;10.70;4.95;;;;;;;20.06;62.86;101413.94;5078751;28;20154;-68
2022/06/03 08:17:25;;;;;;;10.68;4.88;;;;;;;20.21;62.28;101412.31;5066949;28;20059;-71
2022/06/03 08:19:54;;;;;;;9.05;4.55;;;;;;;20.29;60.43;101405.22;5074542;28;20421;-71
2022/06/03 08:22:24;;;;;;;9.93;4.75;;;;;;;20.36;60.31;101407.06;5075458;28;20079;-71
2022/06/03 08:24:56;;;;;;;10.95;4.47;;;;;;;20.42;59.83;101388.41;5075417;28;20178;-72
2022/06/03 08:27:27;;;;;;;10.65;4.57;;;;;;;20.56;59.60;101389.97;5080184;28;20052;-70
2022/06/03 08:30:06;;;;;;;10.18;4.63;;;;;;;20.67;59.17;101379.97;5076621;28;20052;-71
2022/06/03 08:32:40;;;;;;;7.85;3.83;;;;;;;20.82;59.02;101389.50;5079976;28;20496;-71
2022/06/03 08:35:10;;;;;;;7.15;3.90;;;;;;;20.92;58.58;101384.78;5077001;28;20105;-71
2022/06/03 08:37:49;;;;;;;8.48;4.70;;;;;;;21.02;57.19;101372.44;5074620;28;20131;-72
2022/06/03 08:40:35;;;;;;;10.50;5.03;;;;;;;21.05;57.99;101369.47;5076789;28;20107;-71
2022/06/03 08:43:32;;;;;;;9.45;5.03;;;;;;;21.19;57.12;101373.84;5077093;28;20083;-72
2022/06/03 08:46:24;;;;;;;12.18;4.70;;;;;;;21.36;56.21;101366.81;5074213;28;20068;-71
2022/06/03 08:48:56;;;;;;;9.38;4.57;;;;;;;21.53;56.23;101382.28;5075375;28;20346;-74
2022/06/03 08:51:32;;;;;;;8.43;4.47;;;;;;;21.67;54.96;101378.97;5084623;28;20054;-71
2022/06/03 08:54:07;;;;;;;9.45;3.95;;;;;;;21.83;55.21;101388.03;5078928;28;20572;-72
2022/06/03 08:56:41;;;;;;;6.78;3.85;;;;;;;21.91;54.47;101382.94;5080026;28;20168;-71
2022/06/03 08:59:21;;;;;;;11.38;4.30;;;;;;;22.00;54.09;101369.69;5075903;28;20048;-71
2022/06/03 09:01:56;;;;;;;10.13;4.32;;;;;;;22.11;53.93;101366.47;5081187;28;20048;-72
2022/06/03 09:04:22;;;;;;;8.43;4.20;;;;;;;22.18;53.69;101369.00;5083135;28;20131;-71
2022/06/03 09:07:16;;;;;;;10.20;5.00;;;;;;;22.27;53.14;101377.50;5066892;28;20057;-74
2022/06/03 09:09:53;;;;;;;5.88;3.92;;;;;;;22.33;52.61;101372.84;5072699;28;20495;-72
2022/06/03 09:12:28;;;;;;;7.43;4.05;;;;;;;22.40;51.53;101367.72;5075400;28;20048;-71
2022/06/03 09:15:01;;;;;;;7.50;4.28;;;;;;;22.48;51.44;101371.06;5078392;28;20158;-71
2022/06/03 09:17:44;;;;;;;8.93;4.60;;;;;;;22.57;51.11;101368.28;5071713;28;20045;-74
2022/06/03 09:20:13;;;;;;;10.95;5.05;;;;;;;22.67;51.27;101361.44;5083714;28;20072;-73
2022/06/03 09:22:40;;;;;;;8.23;4.13;;;;;;;22.80;50.46;101370.56;5076393;28;20083;-73
2022/06/03 09:25:11;;;;;;;9.57;4.28;;;;;;;22.94;50.64;101357.91;5078272;28;20045;-72
2022/06/03 09:27:39;;;;;;;16.13;5.75;;;;;;;23.05;50.48;101366.72;5083669;28;20626;-71
2022/06/03 09:30:07;;;;;;;11.90;5.13;;;;;;;23.05;50.28;101363.91;5072287;28;20059;-71
2022/06/03 09:32:41;;;;;;;8.80;5.03;;;;;;;23.09;49.67;101364.53;5080608;28;20133;-72
2022/06/03 09:35:16;;;;;;;9.80;4.10;;;;;;;23.26;49.71;101355.34;5079320;28;20063;-75
2022/06/03 09:37:58;;;;;;;4.63;2.83;;;;;;;23.46;48.13;101352.03;5080595;28;20052;-71
2022/06/03 09:40:31;;;;;;;6.97;4.05;;;;;;;23.58;46.05;101357.53;5078903;28;20568;-71
2022/06/03 09:43:06;;;;;;;7.82;3.63;;;;;;;23.60;45.06;101355.03;5077700;28;20083;-70
2022/06/03 09:45:45;;;;;;;7.38;3.67;;;;;;;23.66;45.64;101347.47;5084385;28;20127;-74
2022/06/03 09:48:15;;;;;;;8.98;3.92;;;;;;;23.68;45.57;101344.97;5078932;28;20075;-71
2022/06/03 09:50:46;;;;;;;6.93;3.72;;;;;;;23.80;45.81;101358.16;5077620;28;20052;-71
2022/06/03 09:53:16;;;;;;;6.32;3.50;;;;;;;23.81;45.45;101362.53;5083877;28;20131;-73
2022/06/03 09:55:50;;;;;;;11.85;4.80;;;;;;;23.93;45.04;101350.28;5088851;28;20052;-71
2022/06/03 09:58:28;;;;;;;6.13;3.50;;;;;;;24.12;45.08;101336.91;5081484;28;20135;-71
2022/06/03 10:00:57;;;;;;;8.43;3.47;;;;;;;24.26;45.27;101334.19;5069562;28;20091;-71
2022/06/03 10:03:25;;;;;;;4.57;2.63;;;;;;;24.35;43.88;101331.34;5073048;28;20144;-69
2022/06/03 10:05:57;;;;;;;6.57;3.03;;;;;;;24.38;42.95;101332.41;5072323;28;20068;-70
2022/06/03 10:08:28;;;;;;;4.55;2.83;;;;;;;24.40;42.57;101335.56;5075606;28;20127;-70
2022/06/03 10:13:42;;;;;;;4.90;2.50;;;;;;;24.76;42.80;101333.34;5076408;28;20501;-76
2022/06/03 10:16:12;;;;;;;4.40;2.97;;;;;;;24.87;41.26;101316.63;5082281;28;20054;-72
2022/06/03 10:18:49;;;;;;;5.45;2.75;;;;;;;24.99;40.67;101309.16;5076197;28;20041;-73
2022/06/03 10:21:16;;;;;;;4.78;2.15;;;;;;;25.07;40.65;101311.13;5079467;28;20116;-71
2022/06/03 10:23:53;;;;;;;7.75;3.25;;;;;;;25.18;40.35;101311.34;5069070;28;20064;-69
2022/06/03 10:26:23;;;;;;;6.75;3.20;;;;;;;25.26;40.73;101308.16;5071664;28;20063;-72
2022/06/03 10:28:53;;;;;;;4.75;2.47;;;;;;;25.32;40.42;101311.91;5078563;28;20063;-70
2022/06/03 10:31:28;;;;;;;5.65;2.90;;;;;;;25.40;40.35;101305.41;5080091;28;20056;-71
2022/06/03 10:33:56;;;;;;;;;;;;;;;25.57;40.22;101300.84;5077305;28;20052;-71
2022/06/03 10:36:31;;;;;;;3.42;2.00;;;;;;;25.75;38.70;101297.03;5072214;28;19994;-71
2022/06/03 10:38:58;;;;;;;4.13;2.40;;;;;;;25.73;38.59;101300.38;5087770;28;20083;-70
2022/06/03 10:41:40;;;;;;;5.05;2.80;;;;;;;25.82;38.40;101299.50;5077508;28;20147;-70
2022/06/03 10:44:33;;;;;;;4.32;2.15;;;;;;;25.72;36.88;101300.84;5074993;28;20084;-73
2022/06/03 10:47:03;;;;;;;2.78;2.35;;;;;;;25.90;38.03;101307.13;5072103;28;20155;-71
2022/06/03 10:49:37;;;;;;;6.78;2.47;;;;;;;26.03;37.51;101304.00;5081828;28;20126;-73
2022/06/03 11:03:29;;;;;;;5.65;2.80;;;;;;;26.65;35.90;101285.41;5066749;28;20080;-73
2022/06/03 11:05:57;;;;;;;3.42;2.15;;;;;;;26.52;37.05;101290.63;5073534;28;20070;-71
2022/06/03 11:08:23;;;;;;;5.68;2.50;;;;;;;26.69;37.06;101291.66;5073316;28;20088;-73
2022/06/03 11:10:54;;;;;;;3.67;2.08;;;;;;;26.74;36.14;101295.88;5076466;28;20076;-73
2022/06/03 11:13:39;;;;;;;3.03;2.33;;;;;;;26.78;35.89;101285.06;5075921;28;20508;-71
2022/06/03 11:16:23;;;;;;;6.78;2.10;;;;;;;26.89;35.16;101280.31;5069257;28;20542;-72
2022/06/03 11:18:50;;;;;;;3.78;1.90;;;;;;;27.00;35.65;101276.84;5075956;28;20051;-74
2022/06/03 11:21:29;;;;;;;3.97;2.20;;;;;;;27.13;35.18;101265.91;5067366;28;20155;-74
2022/06/03 11:23:59;;;;;;;3.25;1.95;;;;;;;27.26;34.97;101272.03;5070759;28;20058;-74
2022/06/03 11:26:41;;;;;;;4.13;2.42;;;;;;;27.48;34.31;101274.34;5078111;28;20080;-71
2022/06/03 11:29:20;;;;;;;3.42;2.03;;;;;;;27.80;34.11;101265.34;5066341;28;20051;-72
2022/06/03 11:31:49;;;;;;;5.20;2.00;;;;;;;28.03;34.73;101258.59;5077043;28;20096;-72
2022/06/03 11:34:34;;;;;;;5.75;2.72;;;;;;;28.48;34.23;101271.13;5062772;28;20137;-76
2022/06/03 11:37:13;;;;;;;2.35;1.85;;;;;;;28.42;32.75;101273.13;5058655;28;20056;-76
2022/06/03 11:39:48;;;;;;;2.33;2.05;;;;;;;28.43;32.44;101266.91;5058676;28;21378;-73
2022/06/03 11:42:35;;;;;;;7.13;1.95;;;;;;;28.46;32.01;101254.53;5057682;28;20657;-73
2022/06/03 11:45:13;;;;;;;2.85;1.98;;;;;;;28.56;32.12;101258.75;5058771;28;20044;-72
2022/06/03 11:47:53;;;;;;;4.15;2.85;;;;;;;28.39;31.25;101243.59;5061634;28;20048;-73
2022/06/03 11:50:24;;;;;;;2.47;2.00;;;;;;;28.34;32.48;101254.97;5061333;28;20047;-73
2022/06/03 11:52:54;;;;;;;3.20;2.05;;;;;;;28.40;33.23;101252.91;5054337;28;20057;-73
2022/06/03 11:55:22;;;;;;;5.65;2.40;;;;;;;28.87;32.72;101247.25;5063506;28;20931;-76
2022/06/03 11:58:20;;;;;;;4.28;2.00;;;;;;;29.26;31.05;101238.88;5059225;28;20097;-72
2022/06/03 12:00:57;;;;;;;4.05;2.10;;;;;;;29.79;30.93;101240.81;5058524;28;20056;-73
2022/06/03 12:03:30;;;;;;;3.83;1.80;;;;;;;30.21;30.53;101243.38;5057841;28;20899;-72
2022/06/03 12:06:03;;;;;;;5.80;2.53;;;;;;;30.83;30.46;101254.16;5059990;28;20666;-71
2022/06/03 12:09:11;;;;;;;4.22;1.83;;;;;;;31.13;29.45;101249.34;5057370;28;20422;-73
2022/06/03 12:15:18;;;;;;;4.35;2.13;;;;;;;31.68;28.34;101241.22;5060041;28;20044;-73
2022/06/03 12:17:44;;;;;;;7.10;1.70;;;;;;;31.49;29.24;101234.59;5059053;28;20064;-75
2022/06/03 12:20:43;;;;;;;3.80;1.77;;;;;;;31.52;27.60;101239.25;5058657;28;20770;-73
2022/06/03 12:23:13;;;;;;;2.03;1.67;;;;;;;31.62;28.10;101234.78;5030353;28;20083;-75
2022/06/03 12:25:43;;;;;;;4.20;1.73;;;;;;;31.64;28.26;101234.25;5060758;28;20412;-75
2022/06/03 12:28:37;;;;;;;6.07;2.08;;;;;;;31.54;27.64;101227.28;5056956;28;20056;-72
2022/06/03 12:31:40;;;;;;;2.95;2.00;;;;;;;31.50;28.09;101216.16;5059667;28;20930;-76
2022/06/03 12:34:27;;;;;;;2.45;1.75;;;;;;;31.73;27.18;101208.16;5058216;28;20101;-74
2022/06/03 12:37:00;;;;;;;3.20;2.08;;;;;;;32.03;28.06;101209.72;5058750;28;20083;-74
2022/06/03 12:39:31;;;;;;;2.83;1.60;;;;;;;32.18;27.62;101208.53;5060755;28;21769;-73
2022/06/03 12:42:08;;;;;;;3.67;1.90;;;;;;;32.53;26.76;101214.19;5077259;28;20103;-73
2022/06/03 12:44:43;;;;;;;2.05;1.52;;;;;;;32.63;27.60;101213.28;5072127;28;20117;-72
2022/06/03 12:47:21;;;;;;;4.10;1.65;;;;;;;32.80;25.84;101216.72;5072169;28;20086;-73
2022/06/03 12:49:51;;;;;;;4.70;1.83;;;;;;;33.15;26.82;101219.41;5078572;28;20073;-73
2022/06/03 12:52:41;;;;;;;2.40;1.80;;;;;;;33.01;25.60;101197.72;5073844;28;20098;-72
2022/06/03 12:55:13;;;;;;;4.18;1.77;;;;;;;33.10;26.78;101203.06;5066076;28;20045;-73
2022/06/03 12:57:52;;;;;;;2.72;1.70;;;;;;;33.39;26.12;101201.34;5067445;28;20075;-74